sensor_id;sensor_type;location;lat;lon;timestamp;P1;durP1;ratioP1;P2;durP2;ratioP2
4686;SDS011;2357;47.316;-1.348;2022-12-07T00:01:32;7.77;;;5.43;;
4686;SDS011;2357;47.316;-1.348;2022-12-07T00:04:00;8.27;;;5.13;;
4686;SDS011;2357;47.316;-1.348;2022-12-07T00:06:34;7.10;;;5.27;;
4686;SDS011;2357;47.316;-1.348;2022-12-07T00:09:03;6.07;;;4.80;;
4686;SDS011;2357;47.316;-1.348;2022-12-07T00:11:29;8.63;;;5.80;;
4686;SDS011;2357;47.316;-1.348;2022-12-07T00:13:56;10.13;;;5.90;;
4686;SDS011;2357;47.316;-1.348;2022-12-07T00:16:24;8.87;;;6.07;;
4686;SDS011;2357;47.316;-1.348;2022-12-07T00:18:53;10.90;;;5.57;;
4686;SDS011;2357;47.316;-1.348;2022-12-07T00:21:19;6.87;;;5.13;;
4686;SDS011;2357;47.316;-1.348;2022-12-07T00:23:50;7.03;;;4.43;;
4686;SDS011;2357;47.316;-1.348;2022-12-07T00:26:18;10.10;;;6.20;;
4686;SDS011;2357;47.316;-1.348;2022-12-07T00:28:46;11.13;;;6.10;;
4686;SDS011;2357;47.316;-1.348;2022-12-07T00:31:13;9.30;;;5.47;;
4686;SDS011;2357;47.316;-1.348;2022-12-07T00:33:40;7.93;;;5.37;;
4686;SDS011;2357;47.316;-1.348;2022-12-07T00:36:08;6.93;;;5.30;;
4686;SDS011;2357;47.316;-1.348;2022-12-07T00:38:36;8.90;;;5.43;;
4686;SDS011;2357;47.316;-1.348;2022-12-07T00:41:08;6.97;;;6.23;;
4686;SDS011;2357;47.316;-1.348;2022-12-07T00:43:42;5.80;;;4.70;;
4686;SDS011;2357;47.316;-1.348;2022-12-07T00:46:08;6.60;;;5.07;;
4686;SDS011;2357;47.316;-1.348;2022-12-07T00:48:34;10.10;;;5.20;;
4686;SDS011;2357;47.316;-1.348;2022-12-07T00:51:00;6.07;;;4.90;;
4686;SDS011;2357;47.316;-1.348;2022-12-07T00:53:27;7.60;;;5.63;;
4686;SDS011;2357;47.316;-1.348;2022-12-07T00:55:53;8.30;;;5.80;;
4686;SDS011;2357;47.316;-1.348;2022-12-07T00:58:20;7.20;;;5.30;;
4686;SDS011;2357;47.316;-1.348;2022-12-07T01:00:46;8.97;;;5.40;;
4686;SDS011;2357;47.316;-1.348;2022-12-07T01:03:12;8.67;;;6.20;;
4686;SDS011;2357;47.316;-1.348;2022-12-07T01:05:39;7.77;;;6.10;;
4686;SDS011;2357;47.316;-1.348;2022-12-07T01:08:13;9.07;;;6.33;;
4686;SDS011;2357;47.316;-1.348;2022-12-07T01:10:39;7.30;;;5.80;;
4686;SDS011;2357;47.316;-1.348;2022-12-07T01:13:04;9.13;;;5.80;;
4686;SDS011;2357;47.316;-1.348;2022-12-07T01:15:30;8.17;;;4.87;;
4686;SDS011;2357;47.316;-1.348;2022-12-07T01:17:55;6.00;;;5.23;;
4686;SDS011;2357;47.316;-1.348;2022-12-07T01:20:21;8.63;;;5.37;;
4686;SDS011;2357;47.316;-1.348;2022-12-07T01:22:47;9.80;;;5.83;;
4686;SDS011;2357;47.316;-1.348;2022-12-07T01:25:13;9.70;;;5.20;;
4686;SDS011;2357;47.316;-1.348;2022-12-07T01:27:38;9.50;;;6.30;;
4686;SDS011;2357;47.316;-1.348;2022-12-07T01:30:04;11.00;;;6.17;;
4686;SDS011;2357;47.316;-1.348;2022-12-07T01:32:32;6.60;;;5.30;;
4686;SDS011;2357;47.316;-1.348;2022-12-07T01:34:58;8.03;;;5.63;;
4686;SDS011;2357;47.316;-1.348;2022-12-07T01:37:24;6.67;;;4.60;;
4686;SDS011;2357;47.316;-1.348;2022-12-07T01:39:50;9.83;;;5.70;;
4686;SDS011;2357;47.316;-1.348;2022-12-07T01:42:16;8.33;;;4.90;;
4686;SDS011;2357;47.316;-1.348;2022-12-07T01:47:42;7.33;;;5.17;;
4686;SDS011;2357;47.316;-1.348;2022-12-07T01:50:11;6.27;;;5.20;;
4686;SDS011;2357;47.316;-1.348;2022-12-07T01:52:38;10.03;;;5.30;;
4686;SDS011;2357;47.316;-1.348;2022-12-07T01:55:10;7.77;;;5.27;;
4686;SDS011;2357;47.316;-1.348;2022-12-07T01:57:40;8.70;;;5.40;;
4686;SDS011;2357;47.316;-1.348;2022-12-07T02:00:10;9.70;;;5.20;;
4686;SDS011;2357;47.316;-1.348;2022-12-07T02:02:43;8.80;;;6.37;;
4686;SDS011;2357;47.316;-1.348;2022-12-07T02:05:13;9.33;;;4.60;;
4686;SDS011;2357;47.316;-1.348;2022-12-07T02:07:39;9.80;;;5.40;;
4686;SDS011;2357;47.316;-1.348;2022-12-07T02:10:15;9.30;;;6.70;;
4686;SDS011;2357;47.316;-1.348;2022-12-07T02:12:47;6.63;;;5.27;;
4686;SDS011;2357;47.316;-1.348;2022-12-07T02:15:16;9.33;;;5.47;;
4686;SDS011;2357;47.316;-1.348;2022-12-07T02:31:29;10.50;;;6.23;;
4686;SDS011;2357;47.316;-1.348;2022-12-07T02:34:05;7.50;;;5.47;;
4686;SDS011;2357;47.316;-1.348;2022-12-07T02:36:42;8.80;;;5.83;;
4686;SDS011;2357;47.316;-1.348;2022-12-07T02:39:14;10.43;;;6.57;;
4686;SDS011;2357;47.316;-1.348;2022-12-07T02:41:51;8.67;;;5.67;;
4686;SDS011;2357;47.316;-1.348;2022-12-07T02:44:20;9.77;;;6.03;;
4686;SDS011;2357;47.316;-1.348;2022-12-07T02:46:54;8.87;;;5.47;;
4686;SDS011;2357;47.316;-1.348;2022-12-07T02:49:23;9.70;;;5.77;;
4686;SDS011;2357;47.316;-1.348;2022-12-07T02:51:51;7.77;;;5.97;;
4686;SDS011;2357;47.316;-1.348;2022-12-07T02:54:17;10.23;;;5.93;;
4686;SDS011;2357;47.316;-1.348;2022-12-07T02:56:48;8.03;;;6.23;;
4686;SDS011;2357;47.316;-1.348;2022-12-07T03:07:35;6.87;;;5.77;;
4686;SDS011;2357;47.316;-1.348;2022-12-07T03:15:43;10.47;;;6.23;;
4686;SDS011;2357;47.316;-1.348;2022-12-07T03:18:16;9.90;;;6.40;;
4686;SDS011;2357;47.316;-1.348;2022-12-07T03:20:44;8.00;;;6.00;;
4686;SDS011;2357;47.316;-1.348;2022-12-07T03:23:12;12.10;;;6.57;;
4686;SDS011;2357;47.316;-1.348;2022-12-07T03:25:41;8.17;;;6.07;;
4686;SDS011;2357;47.316;-1.348;2022-12-07T03:28:10;10.70;;;6.30;;
4686;SDS011;2357;47.316;-1.348;2022-12-07T03:31:21;11.30;;;6.87;;
4686;SDS011;2357;47.316;-1.348;2022-12-07T03:36:14;9.00;;;5.93;;
4686;SDS011;2357;47.316;-1.348;2022-12-07T03:39:00;12.30;;;6.30;;
4686;SDS011;2357;47.316;-1.348;2022-12-07T03:41:37;11.10;;;6.13;;
4686;SDS011;2357;47.316;-1.348;2022-12-07T03:44:04;8.87;;;6.67;;
4686;SDS011;2357;47.316;-1.348;2022-12-07T03:49:38;15.57;;;7.50;;
4686;SDS011;2357;47.316;-1.348;2022-12-07T03:52:11;11.07;;;6.43;;
4686;SDS011;2357;47.316;-1.348;2022-12-07T03:54:39;11.00;;;7.00;;
4686;SDS011;2357;47.316;-1.348;2022-12-07T03:57:33;14.07;;;7.10;;
4686;SDS011;2357;47.316;-1.348;2022-12-07T04:00:00;13.70;;;7.43;;
4686;SDS011;2357;47.316;-1.348;2022-12-07T04:02:28;18.47;;;7.80;;
4686;SDS011;2357;47.316;-1.348;2022-12-07T04:04:54;15.20;;;8.30;;
4686;SDS011;2357;47.316;-1.348;2022-12-07T04:07:21;14.97;;;8.60;;
4686;SDS011;2357;47.316;-1.348;2022-12-07T04:09:47;16.03;;;6.90;;
4686;SDS011;2357;47.316;-1.348;2022-12-07T04:12:13;13.73;;;7.70;;
4686;SDS011;2357;47.316;-1.348;2022-12-07T04:14:38;12.73;;;7.40;;
4686;SDS011;2357;47.316;-1.348;2022-12-07T04:17:04;15.57;;;7.47;;
4686;SDS011;2357;47.316;-1.348;2022-12-07T04:19:31;16.23;;;8.27;;
4686;SDS011;2357;47.316;-1.348;2022-12-07T04:21:58;16.97;;;8.20;;
4686;SDS011;2357;47.316;-1.348;2022-12-07T04:24:25;15.10;;;8.03;;
4686;SDS011;2357;47.316;-1.348;2022-12-07T04:26:51;12.67;;;7.90;;
4686;SDS011;2357;47.316;-1.348;2022-12-07T04:29:17;15.90;;;7.87;;
4686;SDS011;2357;47.316;-1.348;2022-12-07T04:31:44;13.67;;;6.87;;
4686;SDS011;2357;47.316;-1.348;2022-12-07T04:34:10;12.57;;;7.93;;
4686;SDS011;2357;47.316;-1.348;2022-12-07T04:36:36;11.07;;;7.87;;
4686;SDS011;2357;47.316;-1.348;2022-12-07T04:39:03;13.17;;;8.20;;
4686;SDS011;2357;47.316;-1.348;2022-12-07T04:41:29;14.43;;;7.40;;
4686;SDS011;2357;47.316;-1.348;2022-12-07T04:43:56;13.23;;;7.70;;
4686;SDS011;2357;47.316;-1.348;2022-12-07T04:46:23;14.90;;;7.90;;
4686;SDS011;2357;47.316;-1.348;2022-12-07T04:48:50;12.97;;;7.77;;
4686;SDS011;2357;47.316;-1.348;2022-12-07T04:51:18;13.33;;;7.67;;
4686;SDS011;2357;47.316;-1.348;2022-12-07T04:53:45;12.80;;;8.93;;
4686;SDS011;2357;47.316;-1.348;2022-12-07T04:56:12;13.83;;;8.30;;
4686;SDS011;2357;47.316;-1.348;2022-12-07T04:58:38;9.83;;;6.40;;
4686;SDS011;2357;47.316;-1.348;2022-12-07T05:01:03;12.27;;;7.63;;
4686;SDS011;2357;47.316;-1.348;2022-12-07T05:03:29;17.30;;;8.60;;
4686;SDS011;2357;47.316;-1.348;2022-12-07T05:05:54;18.83;;;10.10;;
4686;SDS011;2357;47.316;-1.348;2022-12-07T05:08:20;14.43;;;8.63;;
4686;SDS011;2357;47.316;-1.348;2022-12-07T05:10:46;14.90;;;7.00;;
4686;SDS011;2357;47.316;-1.348;2022-12-07T05:13:13;13.70;;;8.87;;
4686;SDS011;2357;47.316;-1.348;2022-12-07T05:15:39;14.73;;;8.33;;
4686;SDS011;2357;47.316;-1.348;2022-12-07T05:18:05;11.27;;;7.30;;
4686;SDS011;2357;47.316;-1.348;2022-12-07T05:20:31;12.23;;;8.20;;
4686;SDS011;2357;47.316;-1.348;2022-12-07T05:22:57;11.40;;;7.50;;
4686;SDS011;2357;47.316;-1.348;2022-12-07T05:25:23;16.43;;;8.20;;
4686;SDS011;2357;47.316;-1.348;2022-12-07T05:27:49;16.80;;;9.40;;
4686;SDS011;2357;47.316;-1.348;2022-12-07T05:30:15;19.40;;;10.23;;
4686;SDS011;2357;47.316;-1.348;2022-12-07T05:32:40;16.83;;;8.87;;
4686;SDS011;2357;47.316;-1.348;2022-12-07T05:35:06;16.17;;;9.17;;
4686;SDS011;2357;47.316;-1.348;2022-12-07T05:37:32;20.10;;;10.10;;
4686;SDS011;2357;47.316;-1.348;2022-12-07T05:39:57;19.00;;;9.47;;
4686;SDS011;2357;47.316;-1.348;2022-12-07T05:42:23;18.00;;;10.83;;
4686;SDS011;2357;47.316;-1.348;2022-12-07T05:44:49;21.23;;;11.70;;
4686;SDS011;2357;47.316;-1.348;2022-12-07T05:47:15;17.70;;;11.10;;
4686;SDS011;2357;47.316;-1.348;2022-12-07T05:49:40;14.40;;;9.77;;
4686;SDS011;2357;47.316;-1.348;2022-12-07T05:52:06;18.60;;;12.07;;
4686;SDS011;2357;47.316;-1.348;2022-12-07T05:54:33;18.83;;;10.50;;
4686;SDS011;2357;47.316;-1.348;2022-12-07T05:56:58;18.93;;;11.20;;
4686;SDS011;2357;47.316;-1.348;2022-12-07T05:59:24;18.53;;;12.30;;
4686;SDS011;2357;47.316;-1.348;2022-12-07T06:01:53;14.70;;;10.87;;
4686;SDS011;2357;47.316;-1.348;2022-12-07T06:04:19;22.07;;;12.63;;
4686;SDS011;2357;47.316;-1.348;2022-12-07T06:06:45;18.93;;;12.30;;
4686;SDS011;2357;47.316;-1.348;2022-12-07T06:09:11;23.93;;;13.40;;
4686;SDS011;2357;47.316;-1.348;2022-12-07T06:11:37;21.70;;;12.43;;
4686;SDS011;2357;47.316;-1.348;2022-12-07T06:14:22;23.17;;;12.83;;
4686;SDS011;2357;47.316;-1.348;2022-12-07T06:16:48;23.30;;;12.20;;
4686;SDS011;2357;47.316;-1.348;2022-12-07T06:19:13;22.50;;;13.90;;
4686;SDS011;2357;47.316;-1.348;2022-12-07T06:21:39;25.43;;;13.40;;
4686;SDS011;2357;47.316;-1.348;2022-12-07T06:24:05;27.70;;;13.33;;
4686;SDS011;2357;47.316;-1.348;2022-12-07T06:26:31;26.07;;;13.80;;
4686;SDS011;2357;47.316;-1.348;2022-12-07T06:28:56;26.07;;;13.10;;
4686;SDS011;2357;47.316;-1.348;2022-12-07T06:31:22;20.20;;;13.53;;
4686;SDS011;2357;47.316;-1.348;2022-12-07T06:33:48;24.90;;;13.33;;
4686;SDS011;2357;47.316;-1.348;2022-12-07T06:36:13;25.50;;;13.00;;
4686;SDS011;2357;47.316;-1.348;2022-12-07T06:38:39;19.20;;;12.70;;
4686;SDS011;2357;47.316;-1.348;2022-12-07T06:41:05;27.20;;;15.67;;
4686;SDS011;2357;47.316;-1.348;2022-12-07T06:43:31;26.37;;;13.20;;
4686;SDS011;2357;47.316;-1.348;2022-12-07T06:45:57;25.53;;;14.10;;
4686;SDS011;2357;47.316;-1.348;2022-12-07T06:48:23;23.80;;;13.90;;
4686;SDS011;2357;47.316;-1.348;2022-12-07T06:50:49;27.50;;;14.17;;
4686;SDS011;2357;47.316;-1.348;2022-12-07T06:53:14;28.80;;;15.67;;
4686;SDS011;2357;47.316;-1.348;2022-12-07T06:55:41;24.83;;;14.13;;
4686;SDS011;2357;47.316;-1.348;2022-12-07T06:58:07;21.90;;;12.70;;
4686;SDS011;2357;47.316;-1.348;2022-12-07T07:00:32;19.63;;;13.17;;
4686;SDS011;2357;47.316;-1.348;2022-12-07T07:03:00;21.83;;;13.70;;
4686;SDS011;2357;47.316;-1.348;2022-12-07T07:05:26;23.03;;;14.17;;
4686;SDS011;2357;47.316;-1.348;2022-12-07T07:07:51;20.97;;;13.03;;
4686;SDS011;2357;47.316;-1.348;2022-12-07T07:10:17;19.43;;;13.40;;
4686;SDS011;2357;47.316;-1.348;2022-12-07T07:12:42;24.13;;;13.10;;
4686;SDS011;2357;47.316;-1.348;2022-12-07T07:15:08;19.90;;;13.23;;
4686;SDS011;2357;47.316;-1.348;2022-12-07T07:17:34;20.97;;;12.40;;
4686;SDS011;2357;47.316;-1.348;2022-12-07T07:20:00;21.20;;;12.47;;
4686;SDS011;2357;47.316;-1.348;2022-12-07T07:22:26;22.73;;;12.37;;
4686;SDS011;2357;47.316;-1.348;2022-12-07T07:24:51;25.23;;;11.60;;
4686;SDS011;2357;47.316;-1.348;2022-12-07T07:27:17;18.10;;;12.37;;
4686;SDS011;2357;47.316;-1.348;2022-12-07T07:29:43;17.17;;;11.43;;
4686;SDS011;2357;47.316;-1.348;2022-12-07T07:32:08;21.63;;;12.00;;
4686;SDS011;2357;47.316;-1.348;2022-12-07T07:34:34;19.43;;;11.60;;
4686;SDS011;2357;47.316;-1.348;2022-12-07T07:36:59;20.43;;;12.60;;
4686;SDS011;2357;47.316;-1.348;2022-12-07T07:39:25;20.70;;;12.37;;
4686;SDS011;2357;47.316;-1.348;2022-12-07T07:41:51;18.00;;;11.40;;
4686;SDS011;2357;47.316;-1.348;2022-12-07T07:44:16;16.73;;;10.03;;
4686;SDS011;2357;47.316;-1.348;2022-12-07T07:46:42;19.90;;;11.40;;
4686;SDS011;2357;47.316;-1.348;2022-12-07T07:49:09;17.90;;;11.20;;
4686;SDS011;2357;47.316;-1.348;2022-12-07T07:51:35;19.20;;;10.10;;
4686;SDS011;2357;47.316;-1.348;2022-12-07T07:54:01;19.17;;;11.27;;
4686;SDS011;2357;47.316;-1.348;2022-12-07T07:56:27;18.07;;;11.30;;
4686;SDS011;2357;47.316;-1.348;2022-12-07T07:58:52;20.83;;;11.40;;
4686;SDS011;2357;47.316;-1.348;2022-12-07T08:01:18;20.87;;;11.30;;
4686;SDS011;2357;47.316;-1.348;2022-12-07T08:03:44;23.27;;;12.27;;
4686;SDS011;2357;47.316;-1.348;2022-12-07T08:06:11;19.90;;;10.90;;
4686;SDS011;2357;47.316;-1.348;2022-12-07T08:08:37;20.93;;;12.27;;
4686;SDS011;2357;47.316;-1.348;2022-12-07T08:11:09;24.27;;;11.77;;
4686;SDS011;2357;47.316;-1.348;2022-12-07T08:13:35;20.57;;;12.20;;
4686;SDS011;2357;47.316;-1.348;2022-12-07T08:16:08;19.17;;;11.40;;
4686;SDS011;2357;47.316;-1.348;2022-12-07T08:18:38;16.20;;;11.67;;
4686;SDS011;2357;47.316;-1.348;2022-12-07T08:21:05;19.90;;;10.57;;
4686;SDS011;2357;47.316;-1.348;2022-12-07T08:23:31;16.00;;;10.30;;
4686;SDS011;2357;47.316;-1.348;2022-12-07T08:26:02;17.80;;;10.53;;
4686;SDS011;2357;47.316;-1.348;2022-12-07T08:28:29;17.23;;;11.23;;
4686;SDS011;2357;47.316;-1.348;2022-12-07T08:31:15;22.77;;;12.50;;
4686;SDS011;2357;47.316;-1.348;2022-12-07T08:33:42;16.90;;;10.83;;
4686;SDS011;2357;47.316;-1.348;2022-12-07T08:36:10;16.37;;;9.67;;
4686;SDS011;2357;47.316;-1.348;2022-12-07T08:38:37;18.93;;;11.53;;
4686;SDS011;2357;47.316;-1.348;2022-12-07T08:41:04;25.57;;;12.47;;
4686;SDS011;2357;47.316;-1.348;2022-12-07T08:43:30;20.20;;;11.30;;
4686;SDS011;2357;47.316;-1.348;2022-12-07T08:48:48;16.87;;;10.50;;
4686;SDS011;2357;47.316;-1.348;2022-12-07T08:51:18;19.55;;;11.45;;
4686;SDS011;2357;47.316;-1.348;2022-12-07T08:53:45;18.53;;;10.57;;
4686;SDS011;2357;47.316;-1.348;2022-12-07T08:56:10;17.47;;;10.50;;
4686;SDS011;2357;47.316;-1.348;2022-12-07T08:58:37;20.63;;;9.93;;
4686;SDS011;2357;47.316;-1.348;2022-12-07T09:01:04;19.90;;;9.33;;
4686;SDS011;2357;47.316;-1.348;2022-12-07T09:03:30;16.80;;;9.50;;
4686;SDS011;2357;47.316;-1.348;2022-12-07T09:05:56;16.70;;;9.40;;
4686;SDS011;2357;47.316;-1.348;2022-12-07T09:08:23;13.17;;;9.53;;
4686;SDS011;2357;47.316;-1.348;2022-12-07T09:10:54;19.30;;;10.00;;
4686;SDS011;2357;47.316;-1.348;2022-12-07T09:13:20;17.37;;;10.03;;
4686;SDS011;2357;47.316;-1.348;2022-12-07T09:15:46;13.80;;;9.73;;
4686;SDS011;2357;47.316;-1.348;2022-12-07T09:18:11;16.40;;;9.90;;
4686;SDS011;2357;47.316;-1.348;2022-12-07T09:20:37;17.40;;;9.53;;
4686;SDS011;2357;47.316;-1.348;2022-12-07T09:23:05;14.17;;;10.00;;
4686;SDS011;2357;47.316;-1.348;2022-12-07T09:25:31;13.03;;;9.20;;
4686;SDS011;2357;47.316;-1.348;2022-12-07T09:27:58;16.30;;;9.33;;
4686;SDS011;2357;47.316;-1.348;2022-12-07T09:30:24;15.40;;;9.57;;
4686;SDS011;2357;47.316;-1.348;2022-12-07T09:32:52;17.13;;;9.60;;
4686;SDS011;2357;47.316;-1.348;2022-12-07T09:35:19;12.97;;;8.90;;
4686;SDS011;2357;47.316;-1.348;2022-12-07T09:37:44;17.80;;;9.83;;
4686;SDS011;2357;47.316;-1.348;2022-12-07T09:40:10;12.60;;;9.43;;
4686;SDS011;2357;47.316;-1.348;2022-12-07T09:42:38;15.70;;;9.80;;
4686;SDS011;2357;47.316;-1.348;2022-12-07T09:45:07;14.93;;;9.07;;
4686;SDS011;2357;47.316;-1.348;2022-12-07T09:47:39;16.20;;;10.20;;
4686;SDS011;2357;47.316;-1.348;2022-12-07T09:50:06;12.27;;;8.53;;
4686;SDS011;2357;47.316;-1.348;2022-12-07T09:52:38;16.83;;;9.80;;
4686;SDS011;2357;47.316;-1.348;2022-12-07T09:55:12;15.50;;;9.73;;
4686;SDS011;2357;47.316;-1.348;2022-12-07T09:57:39;17.23;;;10.17;;
4686;SDS011;2357;47.316;-1.348;2022-12-07T10:00:38;13.00;;;8.63;;
4686;SDS011;2357;47.316;-1.348;2022-12-07T10:03:00;12.23;;;8.80;;
4686;SDS011;2357;47.316;-1.348;2022-12-07T10:05:32;13.60;;;9.53;;
4686;SDS011;2357;47.316;-1.348;2022-12-07T10:08:12;13.03;;;9.37;;
4686;SDS011;2357;47.316;-1.348;2022-12-07T10:10:39;13.00;;;8.70;;
4686;SDS011;2357;47.316;-1.348;2022-12-07T10:13:12;12.20;;;8.87;;
4686;SDS011;2357;47.316;-1.348;2022-12-07T10:18:20;14.77;;;9.47;;
4686;SDS011;2357;47.316;-1.348;2022-12-07T10:21:02;13.53;;;9.43;;
4686;SDS011;2357;47.316;-1.348;2022-12-07T10:23:35;14.23;;;9.57;;
4686;SDS011;2357;47.316;-1.348;2022-12-07T10:26:21;13.30;;;8.80;;
4686;SDS011;2357;47.316;-1.348;2022-12-07T10:28:56;13.93;;;8.80;;
4686;SDS011;2357;47.316;-1.348;2022-12-07T10:31:25;12.93;;;9.63;;
4686;SDS011;2357;47.316;-1.348;2022-12-07T10:33:55;16.43;;;9.63;;
4686;SDS011;2357;47.316;-1.348;2022-12-07T10:36:35;14.43;;;10.50;;
4686;SDS011;2357;47.316;-1.348;2022-12-07T10:39:24;18.40;;;10.67;;
4686;SDS011;2357;47.316;-1.348;2022-12-07T10:41:52;13.90;;;8.83;;
4686;SDS011;2357;47.316;-1.348;2022-12-07T10:44:23;14.00;;;8.73;;
4686;SDS011;2357;47.316;-1.348;2022-12-07T10:46:54;16.50;;;9.70;;
4686;SDS011;2357;47.316;-1.348;2022-12-07T11:01:08;15.10;;;9.77;;
4686;SDS011;2357;47.316;-1.348;2022-12-07T11:09:29;14.07;;;7.97;;
4686;SDS011;2357;47.316;-1.348;2022-12-07T11:12:09;13.43;;;7.00;;
4686;SDS011;2357;47.316;-1.348;2022-12-07T11:20:24;11.47;;;7.90;;
4686;SDS011;2357;47.316;-1.348;2022-12-07T11:23:21;16.17;;;9.27;;
4686;SDS011;2357;47.316;-1.348;2022-12-07T11:31:50;11.60;;;8.27;;
4686;SDS011;2357;47.316;-1.348;2022-12-07T11:37:07;15.80;;;8.17;;
4686;SDS011;2357;47.316;-1.348;2022-12-07T11:39:50;13.63;;;7.50;;
4686;SDS011;2357;47.316;-1.348;2022-12-07T11:42:22;11.13;;;7.63;;
4686;SDS011;2357;47.316;-1.348;2022-12-07T11:44:53;9.87;;;7.20;;
4686;SDS011;2357;47.316;-1.348;2022-12-07T11:47:35;12.83;;;8.00;;
4686;SDS011;2357;47.316;-1.348;2022-12-07T12:01:08;8.83;;;6.00;;
4686;SDS011;2357;47.316;-1.348;2022-12-07T12:03:37;11.73;;;6.07;;
4686;SDS011;2357;47.316;-1.348;2022-12-07T12:06:08;10.20;;;6.10;;
4686;SDS011;2357;47.316;-1.348;2022-12-07T12:08:46;12.27;;;7.17;;
4686;SDS011;2357;47.316;-1.348;2022-12-07T12:25:27;9.70;;;5.97;;
4686;SDS011;2357;47.316;-1.348;2022-12-07T12:28:00;9.80;;;6.73;;
4686;SDS011;2357;47.316;-1.348;2022-12-07T12:30:39;10.07;;;6.20;;
4686;SDS011;2357;47.316;-1.348;2022-12-07T12:33:13;11.80;;;6.40;;
4686;SDS011;2357;47.316;-1.348;2022-12-07T12:35:40;9.50;;;5.60;;
4686;SDS011;2357;47.316;-1.348;2022-12-07T12:43:58;7.93;;;5.37;;
4686;SDS011;2357;47.316;-1.348;2022-12-07T12:51:49;7.87;;;5.37;;
4686;SDS011;2357;47.316;-1.348;2022-12-07T12:54:20;9.63;;;6.40;;
4686;SDS011;2357;47.316;-1.348;2022-12-07T12:59:32;9.85;;;7.45;;
4686;SDS011;2357;47.316;-1.348;2022-12-07T13:18:40;8.40;;;5.30;;
4686;SDS011;2357;47.316;-1.348;2022-12-07T13:26:20;11.43;;;5.20;;
4686;SDS011;2357;47.316;-1.348;2022-12-07T13:29:05;7.60;;;5.30;;
4686;SDS011;2357;47.316;-1.348;2022-12-07T13:34:04;9.90;;;6.20;;
4686;SDS011;2357;47.316;-1.348;2022-12-07T13:36:50;6.37;;;5.13;;
4686;SDS011;2357;47.316;-1.348;2022-12-07T13:39:18;7.10;;;5.50;;
4686;SDS011;2357;47.316;-1.348;2022-12-07T13:41:44;7.53;;;5.53;;
4686;SDS011;2357;47.316;-1.348;2022-12-07T13:44:14;8.23;;;5.73;;
4686;SDS011;2357;47.316;-1.348;2022-12-07T13:51:51;9.47;;;5.70;;
4686;SDS011;2357;47.316;-1.348;2022-12-07T13:54:18;8.73;;;6.13;;
4686;SDS011;2357;47.316;-1.348;2022-12-07T13:56:46;9.37;;;6.30;;
4686;SDS011;2357;47.316;-1.348;2022-12-07T13:59:17;6.50;;;5.23;;
4686;SDS011;2357;47.316;-1.348;2022-12-07T14:01:48;10.60;;;6.40;;
4686;SDS011;2357;47.316;-1.348;2022-12-07T14:06:56;9.27;;;6.37;;
4686;SDS011;2357;47.316;-1.348;2022-12-07T14:09:23;7.70;;;5.13;;
4686;SDS011;2357;47.316;-1.348;2022-12-07T14:11:51;10.80;;;6.10;;
4686;SDS011;2357;47.316;-1.348;2022-12-07T14:14:23;11.70;;;6.17;;
4686;SDS011;2357;47.316;-1.348;2022-12-07T14:17:09;8.67;;;5.90;;
4686;SDS011;2357;47.316;-1.348;2022-12-07T14:19:41;9.43;;;6.00;;
4686;SDS011;2357;47.316;-1.348;2022-12-07T14:22:08;7.30;;;6.40;;
4686;SDS011;2357;47.316;-1.348;2022-12-07T14:24:44;10.40;;;5.93;;
4686;SDS011;2357;47.316;-1.348;2022-12-07T14:27:20;8.60;;;5.20;;
4686;SDS011;2357;47.316;-1.348;2022-12-07T14:29:50;10.33;;;5.80;;
4686;SDS011;2357;47.316;-1.348;2022-12-07T14:32:18;7.77;;;5.43;;
4686;SDS011;2357;47.316;-1.348;2022-12-07T14:34:55;8.43;;;5.93;;
4686;SDS011;2357;47.316;-1.348;2022-12-07T14:37:22;13.30;;;7.20;;
4686;SDS011;2357;47.316;-1.348;2022-12-07T14:39:48;8.27;;;5.97;;
4686;SDS011;2357;47.316;-1.348;2022-12-07T14:42:14;16.50;;;7.40;;
4686;SDS011;2357;47.316;-1.348;2022-12-07T14:44:40;9.63;;;6.90;;
4686;SDS011;2357;47.316;-1.348;2022-12-07T14:47:08;9.00;;;5.73;;
4686;SDS011;2357;47.316;-1.348;2022-12-07T14:49:35;9.67;;;5.73;;
4686;SDS011;2357;47.316;-1.348;2022-12-07T14:52:01;10.90;;;6.63;;
4686;SDS011;2357;47.316;-1.348;2022-12-07T14:54:27;10.23;;;6.43;;
4686;SDS011;2357;47.316;-1.348;2022-12-07T14:56:56;11.37;;;5.93;;
4686;SDS011;2357;47.316;-1.348;2022-12-07T14:59:23;8.03;;;5.40;;
4686;SDS011;2357;47.316;-1.348;2022-12-07T15:01:48;11.30;;;6.20;;
4686;SDS011;2357;47.316;-1.348;2022-12-07T15:04:14;11.83;;;5.53;;
4686;SDS011;2357;47.316;-1.348;2022-12-07T15:06:40;12.13;;;6.63;;
4686;SDS011;2357;47.316;-1.348;2022-12-07T15:09:08;16.13;;;7.82;;
4686;SDS011;2357;47.316;-1.348;2022-12-07T15:11:36;9.90;;;6.10;;
4686;SDS011;2357;47.316;-1.348;2022-12-07T15:14:01;9.33;;;6.40;;
4686;SDS011;2357;47.316;-1.348;2022-12-07T15:16:33;10.43;;;7.27;;
4686;SDS011;2357;47.316;-1.348;2022-12-07T15:19:00;9.80;;;5.90;;
4686;SDS011;2357;47.316;-1.348;2022-12-07T15:21:26;12.00;;;6.60;;
4686;SDS011;2357;47.316;-1.348;2022-12-07T15:23:52;8.60;;;5.80;;
4686;SDS011;2357;47.316;-1.348;2022-12-07T15:26:18;10.57;;;6.77;;
4686;SDS011;2357;47.316;-1.348;2022-12-07T15:28:43;10.87;;;5.60;;
4686;SDS011;2357;47.316;-1.348;2022-12-07T15:31:15;8.93;;;5.93;;
4686;SDS011;2357;47.316;-1.348;2022-12-07T15:33:42;7.07;;;5.17;;
4686;SDS011;2357;47.316;-1.348;2022-12-07T15:36:09;9.50;;;6.30;;
4686;SDS011;2357;47.316;-1.348;2022-12-07T15:38:46;11.70;;;7.37;;
4686;SDS011;2357;47.316;-1.348;2022-12-07T15:41:12;8.70;;;5.80;;
4686;SDS011;2357;47.316;-1.348;2022-12-07T15:43:37;7.73;;;5.60;;
4686;SDS011;2357;47.316;-1.348;2022-12-07T15:46:22;12.63;;;6.13;;
4686;SDS011;2357;47.316;-1.348;2022-12-07T15:48:47;7.80;;;6.00;;
4686;SDS011;2357;47.316;-1.348;2022-12-07T15:51:13;9.70;;;5.30;;
4686;SDS011;2357;47.316;-1.348;2022-12-07T15:53:38;7.73;;;6.43;;
4686;SDS011;2357;47.316;-1.348;2022-12-07T15:56:07;10.47;;;6.07;;
4686;SDS011;2357;47.316;-1.348;2022-12-07T15:58:33;14.33;;;7.00;;
4686;SDS011;2357;47.316;-1.348;2022-12-07T16:00:59;12.87;;;5.83;;
4686;SDS011;2357;47.316;-1.348;2022-12-07T16:03:26;9.70;;;6.40;;
4686;SDS011;2357;47.316;-1.348;2022-12-07T16:05:52;10.70;;;6.90;;
4686;SDS011;2357;47.316;-1.348;2022-12-07T16:08:18;11.43;;;6.60;;
4686;SDS011;2357;47.316;-1.348;2022-12-07T16:10:44;10.10;;;6.77;;
4686;SDS011;2357;47.316;-1.348;2022-12-07T16:13:10;12.70;;;7.00;;
4686;SDS011;2357;47.316;-1.348;2022-12-07T16:15:38;9.40;;;5.60;;
4686;SDS011;2357;47.316;-1.348;2022-12-07T16:18:04;12.43;;;7.20;;
4686;SDS011;2357;47.316;-1.348;2022-12-07T16:20:30;11.53;;;6.23;;
4686;SDS011;2357;47.316;-1.348;2022-12-07T16:22:56;10.10;;;6.00;;
4686;SDS011;2357;47.316;-1.348;2022-12-07T16:25:21;11.27;;;6.53;;
4686;SDS011;2357;47.316;-1.348;2022-12-07T16:27:47;13.60;;;8.03;;
4686;SDS011;2357;47.316;-1.348;2022-12-07T16:30:13;14.10;;;7.17;;
4686;SDS011;2357;47.316;-1.348;2022-12-07T16:32:41;9.20;;;6.47;;
4686;SDS011;2357;47.316;-1.348;2022-12-07T16:35:07;9.37;;;6.03;;
4686;SDS011;2357;47.316;-1.348;2022-12-07T16:37:33;11.23;;;7.00;;
4686;SDS011;2357;47.316;-1.348;2022-12-07T16:39:59;9.60;;;6.30;;
4686;SDS011;2357;47.316;-1.348;2022-12-07T16:42:25;14.13;;;7.40;;
4686;SDS011;2357;47.316;-1.348;2022-12-07T16:44:51;9.47;;;6.23;;
4686;SDS011;2357;47.316;-1.348;2022-12-07T16:47:17;11.77;;;7.03;;
4686;SDS011;2357;47.316;-1.348;2022-12-07T16:49:42;14.00;;;7.30;;
4686;SDS011;2357;47.316;-1.348;2022-12-07T16:52:08;11.30;;;7.40;;
4686;SDS011;2357;47.316;-1.348;2022-12-07T16:54:35;13.23;;;7.83;;
4686;SDS011;2357;47.316;-1.348;2022-12-07T16:57:01;15.03;;;7.90;;
4686;SDS011;2357;47.316;-1.348;2022-12-07T16:59:26;12.20;;;7.73;;
4686;SDS011;2357;47.316;-1.348;2022-12-07T17:01:52;11.30;;;6.77;;
4686;SDS011;2357;47.316;-1.348;2022-12-07T17:04:18;14.20;;;6.33;;
4686;SDS011;2357;47.316;-1.348;2022-12-07T17:06:43;12.03;;;6.43;;
4686;SDS011;2357;47.316;-1.348;2022-12-07T17:09:09;11.83;;;7.03;;
4686;SDS011;2357;47.316;-1.348;2022-12-07T17:11:36;11.83;;;6.70;;
4686;SDS011;2357;47.316;-1.348;2022-12-07T17:14:02;9.50;;;6.97;;
4686;SDS011;2357;47.316;-1.348;2022-12-07T17:16:47;9.13;;;6.53;;
4686;SDS011;2357;47.316;-1.348;2022-12-07T17:19:14;11.10;;;7.43;;
4686;SDS011;2357;47.316;-1.348;2022-12-07T17:21:40;12.30;;;7.50;;